sensor_id;sensor_type;location;lat;lon;timestamp;P1;durP1;ratioP1;P2;durP2;ratioP2
53873;SDS011;62246;50.938;4.058;2022-12-29T00:01:52;1.83;;;1.20;;
53873;SDS011;62246;50.938;4.058;2022-12-29T00:04:17;4.00;;;1.40;;
53873;SDS011;62246;50.938;4.058;2022-12-29T00:06:44;2.60;;;0.90;;
53873;SDS011;62246;50.938;4.058;2022-12-29T00:09:13;2.50;;;1.20;;
53873;SDS011;62246;50.938;4.058;2022-12-29T00:11:40;4.10;;;1.27;;
53873;SDS011;62246;50.938;4.058;2022-12-29T00:14:05;2.58;;;0.90;;
53873;SDS011;62246;50.938;4.058;2022-12-29T00:19:15;3.67;;;0.93;;
53873;SDS011;62246;50.938;4.058;2022-12-29T00:21:59;1.42;;;0.82;;
53873;SDS011;62246;50.938;4.058;2022-12-29T00:24:46;1.77;;;0.60;;
53873;SDS011;62246;50.938;4.058;2022-12-29T00:27:29;1.88;;;0.88;;
53873;SDS011;62246;50.938;4.058;2022-12-29T00:30:19;3.30;;;0.88;;
53873;SDS011;62246;50.938;4.058;2022-12-29T00:33:12;2.70;;;0.60;;
53873;SDS011;62246;50.938;4.058;2022-12-29T00:36:00;2.60;;;0.70;;
53873;SDS011;62246;50.938;4.058;2022-12-29T00:38:30;3.05;;;0.60;;
53873;SDS011;62246;50.938;4.058;2022-12-29T00:41:16;2.58;;;0.95;;
53873;SDS011;62246;50.938;4.058;2022-12-29T00:44:00;2.30;;;0.75;;
53873;SDS011;62246;50.938;4.058;2022-12-29T00:48:58;2.13;;;0.80;;
53873;SDS011;62246;50.938;4.058;2022-12-29T00:51:42;3.03;;;0.85;;
53873;SDS011;62246;50.938;4.058;2022-12-29T00:54:08;4.65;;;0.82;;
53873;SDS011;62246;50.938;4.058;2022-12-29T00:56:34;3.75;;;0.77;;
53873;SDS011;62246;50.938;4.058;2022-12-29T00:59:03;1.27;;;0.40;;
53873;SDS011;62246;50.938;4.058;2022-12-29T01:01:34;4.22;;;0.90;;
53873;SDS011;62246;50.938;4.058;2022-12-29T01:04:00;3.97;;;1.08;;
53873;SDS011;62246;50.938;4.058;2022-12-29T01:06:25;3.90;;;0.82;;
53873;SDS011;62246;50.938;4.058;2022-12-29T01:08:51;3.80;;;1.45;;
53873;SDS011;62246;50.938;4.058;2022-12-29T01:11:37;3.60;;;0.80;;
53873;SDS011;62246;50.938;4.058;2022-12-29T01:14:04;5.40;;;1.23;;
53873;SDS011;62246;50.938;4.058;2022-12-29T01:16:30;4.28;;;0.90;;
53873;SDS011;62246;50.938;4.058;2022-12-29T01:18:56;1.77;;;0.28;;
53873;SDS011;62246;50.938;4.058;2022-12-29T01:23:48;3.83;;;0.38;;
53873;SDS011;62246;50.938;4.058;2022-12-29T01:26:14;5.35;;;0.90;;
53873;SDS011;62246;50.938;4.058;2022-12-29T01:28:41;7.00;;;1.20;;
53873;SDS011;62246;50.938;4.058;2022-12-29T01:31:07;6.35;;;0.90;;
53873;SDS011;62246;50.938;4.058;2022-12-29T01:33:34;2.88;;;0.60;;
53873;SDS011;62246;50.938;4.058;2022-12-29T01:36:03;3.58;;;0.73;;
53873;SDS011;62246;50.938;4.058;2022-12-29T01:38:30;3.30;;;0.70;;
53873;SDS011;62246;50.938;4.058;2022-12-29T01:40:56;4.30;;;1.10;;
53873;SDS011;62246;50.938;4.058;2022-12-29T01:43:37;4.43;;;0.93;;
53873;SDS011;62246;50.938;4.058;2022-12-29T01:46:03;2.92;;;0.80;;
53873;SDS011;62246;50.938;4.058;2022-12-29T01:48:29;4.00;;;0.90;;
53873;SDS011;62246;50.938;4.058;2022-12-29T01:50:54;6.10;;;0.98;;
53873;SDS011;62246;50.938;4.058;2022-12-29T01:53:27;3.42;;;0.80;;
53873;SDS011;62246;50.938;4.058;2022-12-29T01:56:00;3.15;;;0.90;;
53873;SDS011;62246;50.938;4.058;2022-12-29T01:58:30;3.33;;;0.85;;
53873;SDS011;62246;50.938;4.058;2022-12-29T02:01:02;3.28;;;0.55;;
53873;SDS011;62246;50.938;4.058;2022-12-29T02:03:29;6.55;;;0.90;;
53873;SDS011;62246;50.938;4.058;2022-12-29T02:08:29;3.53;;;0.90;;
53873;SDS011;62246;50.938;4.058;2022-12-29T02:10:55;5.22;;;0.95;;
53873;SDS011;62246;50.938;4.058;2022-12-29T02:13:26;1.83;;;0.70;;
53873;SDS011;62246;50.938;4.058;2022-12-29T02:26:52;5.30;;;1.20;;
53873;SDS011;62246;50.938;4.058;2022-12-29T02:34:56;6.07;;;0.73;;
53873;SDS011;62246;50.938;4.058;2022-12-29T02:37:37;2.95;;;0.70;;
53873;SDS011;62246;50.938;4.058;2022-12-29T02:40:28;3.25;;;0.70;;
53873;SDS011;62246;50.938;4.058;2022-12-29T02:43:23;4.70;;;0.57;;
53873;SDS011;62246;50.938;4.058;2022-12-29T02:48:30;4.25;;;0.70;;
53873;SDS011;62246;50.938;4.058;2022-12-29T02:51:15;2.83;;;0.65;;
53873;SDS011;62246;50.938;4.058;2022-12-29T02:53:46;5.18;;;0.90;;
53873;SDS011;62246;50.938;4.058;2022-12-29T02:56:30;2.92;;;0.70;;
53873;SDS011;62246;50.938;4.058;2022-12-29T02:58:56;5.97;;;0.80;;
53873;SDS011;62246;50.938;4.058;2022-12-29T03:15:51;5.47;;;0.80;;
53873;SDS011;62246;50.938;4.058;2022-12-29T03:24:32;2.97;;;0.63;;
53873;SDS011;62246;50.938;4.058;2022-12-29T03:29:27;6.78;;;1.27;;
53873;SDS011;62246;50.938;4.058;2022-12-29T03:31:58;5.72;;;0.82;;
53873;SDS011;62246;50.938;4.058;2022-12-29T03:34:26;3.88;;;0.80;;
53873;SDS011;62246;50.938;4.058;2022-12-29T03:36:54;5.47;;;0.80;;
53873;SDS011;62246;50.938;4.058;2022-12-29T03:39:29;5.88;;;0.90;;
53873;SDS011;62246;50.938;4.058;2022-12-29T03:41:57;3.53;;;0.77;;
53873;SDS011;62246;50.938;4.058;2022-12-29T03:44:46;8.27;;;1.17;;
53873;SDS011;62246;50.938;4.058;2022-12-29T03:47:11;7.40;;;0.95;;
53873;SDS011;62246;50.938;4.058;2022-12-29T03:49:39;7.50;;;0.90;;
53873;SDS011;62246;50.938;4.058;2022-12-29T03:52:04;6.75;;;0.98;;
53873;SDS011;62246;50.938;4.058;2022-12-29T03:54:30;5.50;;;1.20;;
53873;SDS011;62246;50.938;4.058;2022-12-29T03:56:56;4.60;;;0.90;;
53873;SDS011;62246;50.938;4.058;2022-12-29T04:06:38;6.80;;;0.97;;
53873;SDS011;62246;50.938;4.058;2022-12-29T04:09:04;4.65;;;1.15;;
53873;SDS011;62246;50.938;4.058;2022-12-29T04:11:29;2.97;;;0.70;;
53873;SDS011;62246;50.938;4.058;2022-12-29T04:13:55;4.22;;;0.82;;
53873;SDS011;62246;50.938;4.058;2022-12-29T04:16:20;8.90;;;1.35;;
53873;SDS011;62246;50.938;4.058;2022-12-29T04:18:46;4.82;;;0.95;;
53873;SDS011;62246;50.938;4.058;2022-12-29T04:21:11;5.95;;;0.90;;
53873;SDS011;62246;50.938;4.058;2022-12-29T04:23:38;5.82;;;0.90;;
53873;SDS011;62246;50.938;4.058;2022-12-29T04:26:04;3.88;;;0.55;;
53873;SDS011;62246;50.938;4.058;2022-12-29T04:28:32;3.17;;;0.70;;
53873;SDS011;62246;50.938;4.058;2022-12-29T04:31:01;7.40;;;0.90;;
53873;SDS011;62246;50.938;4.058;2022-12-29T04:33:27;4.28;;;0.63;;
53873;SDS011;62246;50.938;4.058;2022-12-29T04:35:53;5.45;;;0.65;;
53873;SDS011;62246;50.938;4.058;2022-12-29T04:38:19;4.05;;;0.70;;
53873;SDS011;62246;50.938;4.058;2022-12-29T04:40:46;5.63;;;1.27;;
53873;SDS011;62246;50.938;4.058;2022-12-29T04:43:12;4.03;;;0.80;;
53873;SDS011;62246;50.938;4.058;2022-12-29T04:45:39;4.20;;;0.75;;
53873;SDS011;62246;50.938;4.058;2022-12-29T04:48:08;5.88;;;0.85;;
53873;SDS011;62246;50.938;4.058;2022-12-29T04:50:34;5.13;;;0.80;;
53873;SDS011;62246;50.938;4.058;2022-12-29T04:52:59;5.53;;;1.08;;
53873;SDS011;62246;50.938;4.058;2022-12-29T04:55:25;4.38;;;0.65;;
53873;SDS011;62246;50.938;4.058;2022-12-29T04:57:50;4.60;;;0.70;;
53873;SDS011;62246;50.938;4.058;2022-12-29T05:00:16;4.32;;;0.80;;
53873;SDS011;62246;50.938;4.058;2022-12-29T05:02:41;4.05;;;0.60;;
53873;SDS011;62246;50.938;4.058;2022-12-29T05:05:07;5.32;;;0.90;;
53873;SDS011;62246;50.938;4.058;2022-12-29T05:07:32;6.40;;;0.65;;
53873;SDS011;62246;50.938;4.058;2022-12-29T05:09:58;5.25;;;0.90;;
53873;SDS011;62246;50.938;4.058;2022-12-29T05:12:24;4.75;;;0.80;;
53873;SDS011;62246;50.938;4.058;2022-12-29T05:14:50;3.38;;;0.70;;
53873;SDS011;62246;50.938;4.058;2022-12-29T05:17:18;5.07;;;0.65;;
53873;SDS011;62246;50.938;4.058;2022-12-29T05:19:43;6.57;;;0.88;;
53873;SDS011;62246;50.938;4.058;2022-12-29T05:22:09;6.85;;;1.00;;
53873;SDS011;62246;50.938;4.058;2022-12-29T05:24:34;6.53;;;1.02;;
53873;SDS011;62246;50.938;4.058;2022-12-29T05:27:00;8.43;;;1.05;;
53873;SDS011;62246;50.938;4.058;2022-12-29T05:29:25;5.35;;;0.90;;
53873;SDS011;62246;50.938;4.058;2022-12-29T05:31:51;6.75;;;1.00;;
53873;SDS011;62246;50.938;4.058;2022-12-29T05:34:16;7.25;;;0.90;;
53873;SDS011;62246;50.938;4.058;2022-12-29T05:36:42;6.20;;;1.17;;
53873;SDS011;62246;50.938;4.058;2022-12-29T05:39:07;8.07;;;1.20;;
53873;SDS011;62246;50.938;4.058;2022-12-29T05:41:33;6.70;;;0.95;;
53873;SDS011;62246;50.938;4.058;2022-12-29T05:43:59;6.00;;;0.93;;
53873;SDS011;62246;50.938;4.058;2022-12-29T05:46:25;8.65;;;1.08;;
53873;SDS011;62246;50.938;4.058;2022-12-29T05:48:51;6.22;;;1.13;;
53873;SDS011;62246;50.938;4.058;2022-12-29T05:51:16;8.23;;;1.20;;
53873;SDS011;62246;50.938;4.058;2022-12-29T05:53:41;7.45;;;1.40;;
53873;SDS011;62246;50.938;4.058;2022-12-29T05:56:07;7.47;;;0.85;;
53873;SDS011;62246;50.938;4.058;2022-12-29T05:58:32;9.15;;;1.30;;
53873;SDS011;62246;50.938;4.058;2022-12-29T06:00:58;7.07;;;1.17;;
53873;SDS011;62246;50.938;4.058;2022-12-29T06:03:23;7.78;;;1.13;;
53873;SDS011;62246;50.938;4.058;2022-12-29T06:05:49;6.35;;;0.93;;
53873;SDS011;62246;50.938;4.058;2022-12-29T06:08:14;5.72;;;1.08;;
53873;SDS011;62246;50.938;4.058;2022-12-29T06:15:31;0.00;;;0.00;;
53873;SDS011;62246;50.938;4.058;2022-12-29T06:17:57;8.05;;;1.10;;
53873;SDS011;62246;50.938;4.058;2022-12-29T06:20:23;11.35;;;1.60;;
53873;SDS011;62246;50.938;4.058;2022-12-29T06:22:49;11.20;;;1.13;;
53873;SDS011;62246;50.938;4.058;2022-12-29T06:25:14;6.55;;;1.25;;
53873;SDS011;62246;50.938;4.058;2022-12-29T06:27:40;4.40;;;1.10;;
53873;SDS011;62246;50.938;4.058;2022-12-29T06:30:06;7.22;;;1.20;;
53873;SDS011;62246;50.938;4.058;2022-12-29T06:32:33;11.23;;;1.40;;
53873;SDS011;62246;50.938;4.058;2022-12-29T06:34:59;9.85;;;1.30;;
53873;SDS011;62246;50.938;4.058;2022-12-29T06:37:25;8.10;;;1.25;;
53873;SDS011;62246;50.938;4.058;2022-12-29T06:39:50;7.78;;;1.50;;
53873;SDS011;62246;50.938;4.058;2022-12-29T06:42:16;8.25;;;1.20;;
53873;SDS011;62246;50.938;4.058;2022-12-29T06:44:41;8.35;;;1.45;;
53873;SDS011;62246;50.938;4.058;2022-12-29T06:47:06;7.85;;;1.17;;
53873;SDS011;62246;50.938;4.058;2022-12-29T06:49:32;11.60;;;1.70;;
53873;SDS011;62246;50.938;4.058;2022-12-29T06:51:57;8.35;;;1.55;;
53873;SDS011;62246;50.938;4.058;2022-12-29T06:54:25;4.90;;;0.75;;
53873;SDS011;62246;50.938;4.058;2022-12-29T06:59:16;12.83;;;1.90;;
53873;SDS011;62246;50.938;4.058;2022-12-29T07:04:07;9.13;;;1.43;;
53873;SDS011;62246;50.938;4.058;2022-12-29T07:06:32;6.30;;;1.15;;
53873;SDS011;62246;50.938;4.058;2022-12-29T07:08:58;11.90;;;1.85;;
53873;SDS011;62246;50.938;4.058;2022-12-29T07:26:03;10.32;;;1.67;;
53873;SDS011;62246;50.938;4.058;2022-12-29T07:28:30;6.40;;;1.13;;
53873;SDS011;62246;50.938;4.058;2022-12-29T07:30:57;7.93;;;1.45;;
53873;SDS011;62246;50.938;4.058;2022-12-29T07:33:23;2.95;;;0.82;;
53873;SDS011;62246;50.938;4.058;2022-12-29T07:35:48;8.65;;;1.67;;
53873;SDS011;62246;50.938;4.058;2022-12-29T07:38:14;9.43;;;1.52;;
53873;SDS011;62246;50.938;4.058;2022-12-29T07:40:39;8.70;;;1.60;;
53873;SDS011;62246;50.938;4.058;2022-12-29T07:43:05;11.60;;;1.40;;
53873;SDS011;62246;50.938;4.058;2022-12-29T07:45:30;13.75;;;2.00;;
53873;SDS011;62246;50.938;4.058;2022-12-29T07:47:56;9.13;;;1.52;;
53873;SDS011;62246;50.938;4.058;2022-12-29T07:50:21;9.10;;;1.40;;
53873;SDS011;62246;50.938;4.058;2022-12-29T07:52:47;6.47;;;1.17;;
53873;SDS011;62246;50.938;4.058;2022-12-29T07:55:13;4.22;;;0.98;;
53873;SDS011;62246;50.938;4.058;2022-12-29T07:57:39;9.00;;;1.33;;
53873;SDS011;62246;50.938;4.058;2022-12-29T08:00:05;10.25;;;1.90;;
53873;SDS011;62246;50.938;4.058;2022-12-29T08:02:30;10.73;;;1.73;;
53873;SDS011;62246;50.938;4.058;2022-12-29T08:04:56;6.50;;;1.33;;
53873;SDS011;62246;50.938;4.058;2022-12-29T08:07:21;10.73;;;1.88;;
53873;SDS011;62246;50.938;4.058;2022-12-29T08:09:47;8.57;;;1.85;;
53873;SDS011;62246;50.938;4.058;2022-12-29T08:12:12;10.27;;;1.52;;
53873;SDS011;62246;50.938;4.058;2022-12-29T08:14:38;16.45;;;2.25;;
53873;SDS011;62246;50.938;4.058;2022-12-29T08:17:03;6.28;;;1.20;;
53873;SDS011;62246;50.938;4.058;2022-12-29T08:19:29;13.93;;;2.53;;
53873;SDS011;62246;50.938;4.058;2022-12-29T08:21:54;10.75;;;1.92;;
53873;SDS011;62246;50.938;4.058;2022-12-29T08:29:10;11.47;;;1.80;;
53873;SDS011;62246;50.938;4.058;2022-12-29T08:31:36;11.57;;;1.70;;
53873;SDS011;62246;50.938;4.058;2022-12-29T08:41:19;11.10;;;1.60;;
53873;SDS011;62246;50.938;4.058;2022-12-29T08:43:48;5.55;;;1.85;;
53873;SDS011;62246;50.938;4.058;2022-12-29T08:46:14;16.00;;;1.43;;
53873;SDS011;62246;50.938;4.058;2022-12-29T08:51:05;10.13;;;1.30;;
53873;SDS011;62246;50.938;4.058;2022-12-29T08:55:57;8.67;;;1.70;;
53873;SDS011;62246;50.938;4.058;2022-12-29T08:58:24;8.50;;;1.70;;
53873;SDS011;62246;50.938;4.058;2022-12-29T09:00:55;9.48;;;1.90;;
53873;SDS011;62246;50.938;4.058;2022-12-29T09:03:22;13.05;;;1.80;;
53873;SDS011;62246;50.938;4.058;2022-12-29T09:05:51;9.15;;;1.90;;
53873;SDS011;62246;50.938;4.058;2022-12-29T09:08:18;11.00;;;1.63;;
53873;SDS011;62246;50.938;4.058;2022-12-29T09:10:44;11.32;;;1.60;;
53873;SDS011;62246;50.938;4.058;2022-12-29T09:13:12;10.10;;;1.83;;
53873;SDS011;62246;50.938;4.058;2022-12-29T09:15:39;14.32;;;1.85;;
53873;SDS011;62246;50.938;4.058;2022-12-29T09:18:05;14.90;;;2.42;;
53873;SDS011;62246;50.938;4.058;2022-12-29T09:20:32;7.18;;;1.25;;
53873;SDS011;62246;50.938;4.058;2022-12-29T09:22:58;11.00;;;1.35;;
53873;SDS011;62246;50.938;4.058;2022-12-29T09:25:24;10.52;;;1.48;;
53873;SDS011;62246;50.938;4.058;2022-12-29T09:27:50;10.18;;;1.77;;
53873;SDS011;62246;50.938;4.058;2022-12-29T09:30:18;10.50;;;1.58;;
53873;SDS011;62246;50.938;4.058;2022-12-29T09:32:45;11.68;;;2.15;;
53873;SDS011;62246;50.938;4.058;2022-12-29T09:35:11;4.90;;;1.20;;
53873;SDS011;62246;50.938;4.058;2022-12-29T09:50:02;14.97;;;2.40;;
53873;SDS011;62246;50.938;4.058;2022-12-29T09:52:40;15.65;;;2.55;;
53873;SDS011;62246;50.938;4.058;2022-12-29T09:55:14;13.30;;;2.08;;
53873;SDS011;62246;50.938;4.058;2022-12-29T09:57:46;11.77;;;2.40;;
53873;SDS011;62246;50.938;4.058;2022-12-29T10:00:19;12.05;;;1.75;;
53873;SDS011;62246;50.938;4.058;2022-12-29T10:02:58;10.30;;;2.15;;
53873;SDS011;62246;50.938;4.058;2022-12-29T10:05:39;12.57;;;2.15;;
53873;SDS011;62246;50.938;4.058;2022-12-29T10:16:29;19.20;;;2.45;;
53873;SDS011;62246;50.938;4.058;2022-12-29T10:22:18;12.45;;;1.92;;
53873;SDS011;62246;50.938;4.058;2022-12-29T10:24:57;11.45;;;1.80;;
53873;SDS011;62246;50.938;4.058;2022-12-29T10:27:27;12.18;;;1.80;;
53873;SDS011;62246;50.938;4.058;2022-12-29T10:29:57;12.23;;;2.28;;
53873;SDS011;62246;50.938;4.058;2022-12-29T10:32:37;16.27;;;2.15;;
53873;SDS011;62246;50.938;4.058;2022-12-29T10:35:30;14.13;;;2.28;;
53873;SDS011;62246;50.938;4.058;2022-12-29T10:41:05;10.27;;;1.63;;
53873;SDS011;62246;50.938;4.058;2022-12-29T10:48:37;15.90;;;2.80;;
53873;SDS011;62246;50.938;4.058;2022-12-29T10:51:07;15.32;;;1.98;;
53873;SDS011;62246;50.938;4.058;2022-12-29T10:53:42;15.82;;;2.28;;
53873;SDS011;62246;50.938;4.058;2022-12-29T10:56:21;5.28;;;1.25;;
53873;SDS011;62246;50.938;4.058;2022-12-29T11:01:20;9.23;;;1.85;;
53873;SDS011;62246;50.938;4.058;2022-12-29T11:06:26;7.63;;;1.00;;
53873;SDS011;62246;50.938;4.058;2022-12-29T11:11:37;8.23;;;1.65;;
53873;SDS011;62246;50.938;4.058;2022-12-29T11:14:10;11.63;;;2.00;;
53873;SDS011;62246;50.938;4.058;2022-12-29T11:16:43;11.15;;;1.63;;
53873;SDS011;62246;50.938;4.058;2022-12-29T11:19:22;12.43;;;1.95;;
53873;SDS011;62246;50.938;4.058;2022-12-29T11:21:50;6.95;;;0.90;;
53873;SDS011;62246;50.938;4.058;2022-12-29T11:24:27;8.90;;;1.85;;
53873;SDS011;62246;50.938;4.058;2022-12-29T11:26:54;12.87;;;2.17;;
53873;SDS011;62246;50.938;4.058;2022-12-29T11:29:37;9.68;;;2.03;;
53873;SDS011;62246;50.938;4.058;2022-12-29T11:32:11;11.73;;;2.00;;
53873;SDS011;62246;50.938;4.058;2022-12-29T11:34:37;10.40;;;1.42;;
53873;SDS011;62246;50.938;4.058;2022-12-29T11:37:13;13.10;;;1.85;;
53873;SDS011;62246;50.938;4.058;2022-12-29T11:43:12;12.90;;;1.90;;
53873;SDS011;62246;50.938;4.058;2022-12-29T11:45:17;10.27;;;2.08;;
53873;SDS011;62246;50.938;4.058;2022-12-29T11:47:58;7.05;;;1.65;;
53873;SDS011;62246;50.938;4.058;2022-12-29T11:50:34;12.07;;;2.00;;
53873;SDS011;62246;50.938;4.058;2022-12-29T12:08:56;11.40;;;1.70;;
53873;SDS011;62246;50.938;4.058;2022-12-29T12:11:32;10.73;;;1.75;;
53873;SDS011;62246;50.938;4.058;2022-12-29T12:14:20;9.52;;;1.23;;
53873;SDS011;62246;50.938;4.058;2022-12-29T12:16:56;8.82;;;1.45;;
53873;SDS011;62246;50.938;4.058;2022-12-29T12:22:27;13.00;;;2.08;;
53873;SDS011;62246;50.938;4.058;2022-12-29T12:27:48;10.55;;;1.83;;
53873;SDS011;62246;50.938;4.058;2022-12-29T12:30:22;8.68;;;1.80;;
53873;SDS011;62246;50.938;4.058;2022-12-29T12:32:56;11.82;;;1.60;;
53873;SDS011;62246;50.938;4.058;2022-12-29T12:35:47;11.38;;;1.92;;
53873;SDS011;62246;50.938;4.058;2022-12-29T12:41:12;9.05;;;1.73;;
53873;SDS011;62246;50.938;4.058;2022-12-29T12:44:18;4.97;;;1.10;;
53873;SDS011;62246;50.938;4.058;2022-12-29T12:49:46;11.63;;;1.97;;
53873;SDS011;62246;50.938;4.058;2022-12-29T12:52:55;18.02;;;2.90;;
53873;SDS011;62246;50.938;4.058;2022-12-29T12:55:39;10.18;;;1.42;;
53873;SDS011;62246;50.938;4.058;2022-12-29T12:58:30;10.10;;;1.60;;
53873;SDS011;62246;50.938;4.058;2022-12-29T13:01:10;12.30;;;2.10;;
53873;SDS011;62246;50.938;4.058;2022-12-29T13:11:56;8.43;;;1.90;;
53873;SDS011;62246;50.938;4.058;2022-12-29T13:14:47;10.48;;;1.75;;
53873;SDS011;62246;50.938;4.058;2022-12-29T13:17:29;11.02;;;1.80;;
53873;SDS011;62246;50.938;4.058;2022-12-29T13:20:17;13.43;;;2.00;;
53873;SDS011;62246;50.938;4.058;2022-12-29T13:25:41;7.88;;;1.23;;
53873;SDS011;62246;50.938;4.058;2022-12-29T13:34:04;8.05;;;1.25;;
53873;SDS011;62246;50.938;4.058;2022-12-29T13:39:28;6.50;;;1.20;;
53873;SDS011;62246;50.938;4.058;2022-12-29T13:42:00;6.80;;;1.50;;
53873;SDS011;62246;50.938;4.058;2022-12-29T13:44:31;9.23;;;1.60;;
53873;SDS011;62246;50.938;4.058;2022-12-29T13:50:05;9.95;;;1.88;;
53873;SDS011;62246;50.938;4.058;2022-12-29T13:58:02;4.53;;;1.00;;
53873;SDS011;62246;50.938;4.058;2022-12-29T14:03:47;3.08;;;0.57;;
53873;SDS011;62246;50.938;4.058;2022-12-29T14:08:43;3.97;;;0.60;;
53873;SDS011;62246;50.938;4.058;2022-12-29T14:11:10;4.25;;;0.60;;
53873;SDS011;62246;50.938;4.058;2022-12-29T14:13:40;4.50;;;0.80;;
53873;SDS011;62246;50.938;4.058;2022-12-29T14:16:10;4.68;;;0.90;;
53873;SDS011;62246;50.938;4.058;2022-12-29T14:18:50;3.83;;;0.75;;
53873;SDS011;62246;50.938;4.058;2022-12-29T14:21:20;3.53;;;0.73;;
53873;SDS011;62246;50.938;4.058;2022-12-29T14:23:52;6.10;;;1.00;;
53873;SDS011;62246;50.938;4.058;2022-12-29T14:28:53;4.70;;;0.82;;
53873;SDS011;62246;50.938;4.058;2022-12-29T14:39:46;3.92;;;0.70;;
53873;SDS011;62246;50.938;4.058;2022-12-29T14:42:12;8.10;;;1.08;;
53873;SDS011;62246;50.938;4.058;2022-12-29T14:45:05;7.38;;;1.40;;
53873;SDS011;62246;50.938;4.058;2022-12-29T14:50:02;7.05;;;1.30;;
53873;SDS011;62246;50.938;4.058;2022-12-29T14:53:32;6.82;;;0.95;;
53873;SDS011;62246;50.938;4.058;2022-12-29T15:00:47;5.38;;;1.20;;
53873;SDS011;62246;50.938;4.058;2022-12-29T15:03:17;6.43;;;1.35;;
53873;SDS011;62246;50.938;4.058;2022-12-29T15:05:46;7.95;;;1.40;;
53873;SDS011;62246;50.938;4.058;2022-12-29T15:08:22;6.45;;;1.50;;
53873;SDS011;62246;50.938;4.058;2022-12-29T15:10:53;13.07;;;1.50;;
53873;SDS011;62246;50.938;4.058;2022-12-29T15:13:32;9.77;;;1.67;;
53873;SDS011;62246;50.938;4.058;2022-12-29T15:18:26;8.97;;;1.60;;
53873;SDS011;62246;50.938;4.058;2022-12-29T15:21:00;12.90;;;1.50;;
53873;SDS011;62246;50.938;4.058;2022-12-29T15:23:28;8.13;;;1.33;;
53873;SDS011;62246;50.938;4.058;2022-12-29T15:26:03;10.60;;;1.70;;
53873;SDS011;62246;50.938;4.058;2022-12-29T15:31:10;10.60;;;1.85;;
53873;SDS011;62246;50.938;4.058;2022-12-29T15:33:41;10.52;;;1.50;;
53873;SDS011;62246;50.938;4.058;2022-12-29T15:36:10;11.07;;;1.90;;
53873;SDS011;62246;50.938;4.058;2022-12-29T15:38:37;10.13;;;1.42;;
53873;SDS011;62246;50.938;4.058;2022-12-29T15:41:16;10.55;;;1.50;;
53873;SDS011;62246;50.938;4.058;2022-12-29T15:46:33;8.32;;;1.45;;
53873;SDS011;62246;50.938;4.058;2022-12-29T15:48:59;6.57;;;1.65;;
53873;SDS011;62246;50.938;4.058;2022-12-29T15:51:32;7.30;;;1.42;;
53873;SDS011;62246;50.938;4.058;2022-12-29T15:54:00;11.40;;;1.95;;
53873;SDS011;62246;50.938;4.058;2022-12-29T15:56:30;10.57;;;1.98;;
53873;SDS011;62246;50.938;4.058;2022-12-29T15:58:57;9.65;;;1.33;;
53873;SDS011;62246;50.938;4.058;2022-12-29T16:03:56;6.38;;;1.63;;
53873;SDS011;62246;50.938;4.058;2022-12-29T16:06:27;8.48;;;1.67;;
53873;SDS011;62246;50.938;4.058;2022-12-29T16:09:28;11.90;;;1.73;;
53873;SDS011;62246;50.938;4.058;2022-12-29T16:11:54;12.02;;;2.08;;
53873;SDS011;62246;50.938;4.058;2022-12-29T16:14:44;12.23;;;1.55;;
53873;SDS011;62246;50.938;4.058;2022-12-29T16:17:23;9.55;;;2.00;;
53873;SDS011;62246;50.938;4.058;2022-12-29T16:22:50;11.32;;;2.10;;
53873;SDS011;62246;50.938;4.058;2022-12-29T16:25:30;11.40;;;2.42;;
53873;SDS011;62246;50.938;4.058;2022-12-29T16:27:59;11.02;;;1.88;;
53873;SDS011;62246;50.938;4.058;2022-12-29T16:30:30;15.65;;;2.38;;
53873;SDS011;62246;50.938;4.058;2022-12-29T16:32:59;11.38;;;2.55;;
53873;SDS011;62246;50.938;4.058;2022-12-29T16:40:38;12.52;;;2.42;;
53873;SDS011;62246;50.938;4.058;2022-12-29T16:43:38;14.10;;;2.60;;
53873;SDS011;62246;50.938;4.058;2022-12-29T16:46:29;14.80;;;2.83;;
53873;SDS011;62246;50.938;4.058;2022-12-29T16:48:55;13.75;;;2.80;;
53873;SDS011;62246;50.938;4.058;2022-12-29T16:51:23;17.27;;;2.67;;
53873;SDS011;62246;50.938;4.058;2022-12-29T16:53:55;12.20;;;2.47;;
53873;SDS011;62246;50.938;4.058;2022-12-29T16:56:22;16.27;;;2.72;;
53873;SDS011;62246;50.938;4.058;2022-12-29T16:59:04;17.17;;;2.58;;
53873;SDS011;62246;50.938;4.058;2022-12-29T17:01:41;14.00;;;3.00;;
53873;SDS011;62246;50.938;4.058;2022-12-29T17:04:11;15.77;;;3.20;;
53873;SDS011;62246;50.938;4.058;2022-12-29T17:06:38;15.82;;;2.58;;
53873;SDS011;62246;50.938;4.058;2022-12-29T17:11:59;16.75;;;2.97;;
53873;SDS011;62246;50.938;4.058;2022-12-29T17:17:49;20.15;;;2.97;;
53873;SDS011;62246;50.938;4.058;2022-12-29T17:20:01;19.10;;;3.20;;
53873;SDS011;62246;50.938;4.058;2022-12-29T17:22:36;21.13;;;2.83;;
53873;SDS011;62246;50.938;4.058;2022-12-29T17:25:01;16.20;;;3.30;;
53873;SDS011;62246;50.938;4.058;2022-12-29T17:27:29;19.13;;;2.80;;
53873;SDS011;62246;50.938;4.058;2022-12-29T17:30:00;18.85;;;3.00;;
53873;SDS011;62246;50.938;4.058;2022-12-29T17:32:28;12.85;;;2.00;;
53873;SDS011;62246;50.938;4.058;2022-12-29T17:34:55;13.40;;;3.17;;
53873;SDS011;62246;50.938;4.058;2022-12-29T17:39:46;16.63;;;3.00;;
53873;SDS011;62246;50.938;4.058;2022-12-29T17:42:11;14.07;;;2.75;;
53873;SDS011;62246;50.938;4.058;2022-12-29T17:44:37;16.00;;;2.70;;
53873;SDS011;62246;50.938;4.058;2022-12-29T17:47:02;13.07;;;2.80;;
53873;SDS011;62246;50.938;4.058;2022-12-29T17:49:28;17.67;;;3.03;;
53873;SDS011;62246;50.938;4.058;2022-12-29T17:51:53;16.08;;;2.63;;
53873;SDS011;62246;50.938;4.058;2022-12-29T17:54:20;16.75;;;2.88;;
53873;SDS011;62246;50.938;4.058;2022-12-29T17:56:48;16.23;;;2.47;;
53873;SDS011;62246;50.938;4.058;2022-12-29T17:59:14;18.35;;;2.90;;
53873;SDS011;62246;50.938;4.058;2022-12-29T18:01:41;18.10;;;3.08;;
53873;SDS011;62246;50.938;4.058;2022-12-29T18:04:10;13.20;;;2.42;;
53873;SDS011;62246;50.938;4.058;2022-12-29T18:06:37;14.13;;;1.85;;
53873;SDS011;62246;50.938;4.058;2022-12-29T18:09:02;18.17;;;2.38;;
53873;SDS011;62246;50.938;4.058;2022-12-29T18:11:32;11.48;;;2.33;;
53873;SDS011;62246;50.938;4.058;2022-12-29T18:13:58;19.08;;;3.00;;
53873;SDS011;62246;50.938;4.058;2022-12-29T18:16:24;15.50;;;2.60;;
53873;SDS011;62246;50.938;4.058;2022-12-29T18:18:49;12.07;;;2.63;;
53873;SDS011;62246;50.938;4.058;2022-12-29T18:21:19;18.15;;;3.25;;
53873;SDS011;62246;50.938;4.058;2022-12-29T18:23:46;15.18;;;2.80;;
53873;SDS011;62246;50.938;4.058;2022-12-29T18:26:16;13.10;;;2.20;;
53873;SDS011;62246;50.938;4.058;2022-12-29T18:28:47;15.85;;;2.30;;
53873;SDS011;62246;50.938;4.058;2022-12-29T18:31:25;13.05;;;2.70;;
53873;SDS011;62246;50.938;4.058;2022-12-29T18:33:55;18.23;;;2.42;;
53873;SDS011;62246;50.938;4.058;2022-12-29T18:36:22;14.85;;;2.50;;
53873;SDS011;62246;50.938;4.058;2022-12-29T18:38:49;19.83;;;2.80;;
53873;SDS011;62246;50.938;4.058;2022-12-29T18:41:23;12.02;;;2.28;;
53873;SDS011;62246;50.938;4.058;2022-12-29T18:43:50;16.30;;;2.83;;
53873;SDS011;62246;50.938;4.058;2022-12-29T18:46:15;11.15;;;2.20;;
53873;SDS011;62246;50.938;4.058;2022-12-29T18:48:41;15.70;;;2.72;;
53873;SDS011;62246;50.938;4.058;2022-12-29T18:51:13;15.05;;;2.40;;
53873;SDS011;62246;50.938;4.058;2022-12-29T18:53:40;14.25;;;2.80;;
53873;SDS011;62246;50.938;4.058;2022-12-29T18:56:06;12.40;;;2.42;;
53873;SDS011;62246;50.938;4.058;2022-12-29T18:58:33;12.32;;;1.85;;
53873;SDS011;62246;50.938;4.058;2022-12-29T19:00:59;7.25;;;1.35;;
53873;SDS011;62246;50.938;4.058;2022-12-29T19:03:24;13.23;;;2.22;;
53873;SDS011;62246;50.938;4.058;2022-12-29T19:05:50;8.05;;;1.70;;
53873;SDS011;62246;50.938;4.058;2022-12-29T19:08:15;3.25;;;0.60;;
53873;SDS011;62246;50.938;4.058;2022-12-29T19:10:41;8.25;;;1.77;;
53873;SDS011;62246;50.938;4.058;2022-12-29T19:13:21;10.18;;;1.90;;